createdAt,value
2022-12-10T00:01:09.432Z,97894.25
2022-12-10T00:03:36.816Z,97888.13
2022-12-10T00:06:05.358Z,97894.72
2022-12-10T00:08:39.602Z,97885.41
2022-12-10T00:11:08.409Z,97912.53
2022-12-10T00:13:36.509Z,97911.91
2022-12-10T00:16:05.087Z,97909.09
2022-12-10T00:18:32.330Z,97921.13
2022-12-10T00:20:58.902Z,97910.16
2022-12-10T00:23:25.540Z,97907.00
2022-12-10T00:25:52.063Z,97909.53
2022-12-10T00:28:18.616Z,97921.63
2022-12-10T00:30:45.176Z,97914.78
2022-12-10T00:33:11.733Z,97913.91
2022-12-10T00:35:38.780Z,97914.72
2022-12-10T00:38:05.361Z,97914.88
2022-12-10T00:40:31.931Z,97905.25
2022-12-10T00:42:58.480Z,97918.47
2022-12-10T00:45:25.065Z,97930.78
2022-12-10T00:47:51.648Z,97907.16
2022-12-10T00:50:18.357Z,97918.03
2022-12-10T00:52:44.950Z,97911.91
2022-12-10T00:55:11.520Z,97924.53
2022-12-10T00:57:38.102Z,97935.25
2022-12-10T01:00:05.722Z,97923.50
2022-12-10T01:02:32.514Z,97940.25
2022-12-10T01:04:59.246Z,97936.66
2022-12-10T01:07:25.810Z,97933.13
2022-12-10T01:09:52.421Z,97939.81
2022-12-10T01:12:18.975Z,97946.84
2022-12-10T01:14:45.595Z,97946.66
2022-12-10T01:17:12.183Z,97949.38
2022-12-10T01:19:39.369Z,97959.19
2022-12-10T01:22:05.944Z,97974.72
2022-12-10T01:24:32.909Z,97957.53
2022-12-10T01:27:00.331Z,97962.06
2022-12-10T01:29:28.951Z,97950.50
2022-12-10T01:31:57.468Z,97965.47
2022-12-10T01:34:25.498Z,97963.81
2022-12-10T01:36:54.230Z,97978.88
2022-12-10T01:39:22.892Z,97964.16
2022-12-10T01:41:58.240Z,97975.91
2022-12-10T01:44:24.759Z,97964.16
2022-12-10T01:46:54.335Z,97960.19
2022-12-10T01:49:27.161Z,97962.47
2022-12-10T01:51:56.922Z,97951.69
2022-12-10T01:54:29.871Z,97954.66
2022-12-10T01:57:00.677Z,97968.69
2022-12-10T01:59:28.833Z,97977.56
2022-12-10T02:02:27.567Z,97987.72
2022-12-10T02:05:14.583Z,98017.72
2022-12-10T02:07:53.435Z,98016.13
2022-12-10T02:10:26.057Z,98023.00
2022-12-10T02:13:07.494Z,98022.31
2022-12-10T02:15:44.676Z,98016.69
2022-12-10T02:18:18.803Z,98012.66
2022-12-10T02:20:50.774Z,98013.78
2022-12-10T02:23:44.154Z,98016.13
2022-12-10T02:26:42.248Z,98026.25
2022-12-10T02:29:19.545Z,98024.78
2022-12-10T02:32:14.929Z,98004.69
2022-12-10T02:34:49.156Z,98030.28
2022-12-10T02:37:21.655Z,98042.03
2022-12-10T02:39:52.164Z,98044.63
2022-12-10T02:42:20.287Z,98043.59
2022-12-10T02:44:49.698Z,98044.19
2022-12-10T02:47:19.303Z,98047.59
2022-12-10T02:49:49.424Z,98050.63
2022-12-10T02:52:19.965Z,98049.63
2022-12-10T02:54:49.356Z,98052.34
2022-12-10T02:57:37.402Z,98042.34
2022-12-10T03:00:07.757Z,98022.44
2022-12-10T03:03:03.618Z,98015.22
2022-12-10T03:05:39.038Z,98018.53
2022-12-10T03:08:26.147Z,98013.09
2022-12-10T03:10:56.271Z,98027.13
2022-12-10T03:13:30.841Z,98030.41
2022-12-10T03:15:59.980Z,98034.13
2022-12-10T03:18:28.333Z,98039.13
2022-12-10T03:21:00.569Z,98036.53
2022-12-10T03:23:29.748Z,98026.69
2022-12-10T03:25:56.666Z,98022.13
2022-12-10T03:28:24.483Z,98017.72
2022-12-10T03:30:52.655Z,98014.13
2022-12-10T03:33:19.593Z,98000.44
2022-12-10T03:35:46.869Z,98018.22
2022-12-10T03:38:14.981Z,98022.63
2022-12-10T03:40:41.915Z,98032.81
2022-12-10T03:43:08.491Z,98041.09
2022-12-10T03:45:35.038Z,98059.06
2022-12-10T03:48:01.613Z,98062.34
2022-12-10T03:50:28.299Z,98067.66
2022-12-10T03:52:54.864Z,98058.38
2022-12-10T03:55:21.458Z,98061.69
2022-12-10T03:57:49.135Z,98061.34
2022-12-10T04:00:15.924Z,98070.63
2022-12-10T04:02:43.120Z,98065.56
2022-12-10T04:05:09.887Z,98069.84
2022-12-10T04:07:36.759Z,98080.81
2022-12-10T04:10:04.385Z,98083.31
2022-12-10T04:12:31.137Z,98085.66
2022-12-10T04:15:16.272Z,98089.19
2022-12-10T04:17:42.852Z,98092.25
2022-12-10T04:20:29.688Z,98092.59
2022-12-10T04:23:14.817Z,98083.50
2022-12-10T04:26:00.380Z,98087.25
2022-12-10T04:28:27.240Z,98072.22
2022-12-10T04:30:53.892Z,98070.84
2022-12-10T04:33:20.503Z,98062.03
2022-12-10T04:35:47.184Z,98066.22
2022-12-10T04:38:13.834Z,98058.16
2022-12-10T04:40:40.404Z,98059.75
2022-12-10T04:43:06.980Z,98066.66
2022-12-10T04:45:35.649Z,98067.22
2022-12-10T04:48:02.631Z,98068.84
2022-12-10T04:50:29.277Z,98061.34
2022-12-10T04:52:55.826Z,98051.72
2022-12-10T04:55:22.662Z,98051.41
2022-12-10T04:57:49.295Z,98051.63
2022-12-10T05:00:16.095Z,98055.84
2022-12-10T05:02:42.658Z,98056.19
2022-12-10T05:05:09.379Z,98061.47
2022-12-10T05:07:35.960Z,98062.72
2022-12-10T05:10:02.535Z,98059.50
2022-12-10T05:12:29.112Z,98061.31
2022-12-10T05:14:55.703Z,98065.50
2022-12-10T05:17:22.313Z,98073.72
2022-12-10T05:19:48.894Z,98088.75
2022-12-10T05:22:33.896Z,98087.25
2022-12-10T05:25:00.917Z,98090.78
2022-12-10T05:27:32.614Z,98083.38
2022-12-10T05:29:59.321Z,98080.78
2022-12-10T05:32:25.884Z,98085.59
2022-12-10T05:34:52.466Z,98091.69
2022-12-10T05:37:19.056Z,98097.53
2022-12-10T05:39:45.747Z,98107.13
2022-12-10T05:42:12.433Z,98105.78
2022-12-10T05:44:39.046Z,98114.28
2022-12-10T05:47:05.611Z,98115.91
2022-12-10T05:49:32.284Z,98130.38
2022-12-10T05:51:58.882Z,98128.16
2022-12-10T05:54:25.645Z,98133.97
2022-12-10T05:56:52.319Z,98125.59
2022-12-10T05:59:18.944Z,98129.78
2022-12-10T06:01:45.959Z,98133.72
2022-12-10T06:04:13.123Z,98136.00
2022-12-10T06:06:40.740Z,98137.25
2022-12-10T06:09:11.778Z,98144.41
2022-12-10T06:11:38.336Z,98149.47
2022-12-10T06:14:04.937Z,98144.97
2022-12-10T06:16:31.710Z,98148.34
2022-12-10T06:18:58.968Z,98141.78
2022-12-10T06:21:26.322Z,98146.75
2022-12-10T06:23:53.836Z,98147.31
2022-12-10T06:26:23.753Z,98160.00
2022-12-10T06:28:51.249Z,98162.19
2022-12-10T06:31:18.782Z,98167.63
2022-12-10T06:33:45.915Z,98154.56
2022-12-10T06:36:15.818Z,98159.22
2022-12-10T06:38:42.864Z,98160.34
2022-12-10T06:41:13.439Z,98153.44
2022-12-10T06:43:40.389Z,98142.00
2022-12-10T06:46:12.332Z,98145.06
2022-12-10T06:48:39.297Z,98142.00
2022-12-10T06:51:06.672Z,98144.41
2022-12-10T06:53:34.751Z,98146.88
2022-12-10T06:56:02.964Z,98141.53
2022-12-10T06:58:30.720Z,98142.00
2022-12-10T07:01:09.092Z,98142.69
2022-12-10T07:03:36.388Z,98146.19
2022-12-10T07:06:04.266Z,98126.03
2022-12-10T07:08:31.264Z,98135.47
2022-12-10T07:10:58.729Z,98125.38
2022-12-10T07:13:30.503Z,98118.72
2022-12-10T07:15:58.002Z,98116.66
2022-12-10T07:18:25.326Z,98108.16
2022-12-10T07:20:51.926Z,98097.72
2022-12-10T07:23:18.921Z,98088.22
2022-12-10T07:25:45.499Z,98096.34
2022-12-10T07:28:12.279Z,98107.06
2022-12-10T07:30:38.892Z,98115.47
2022-12-10T07:33:05.668Z,98101.41
2022-12-10T07:35:32.266Z,98100.47
2022-12-10T07:37:58.906Z,98101.50
2022-12-10T07:40:25.432Z,98097.44
2022-12-10T07:42:52.014Z,98095.56
2022-12-10T07:45:18.669Z,98098.22
2022-12-10T07:47:45.282Z,98095.63
2022-12-10T07:50:12.082Z,98087.28
2022-12-10T07:52:38.816Z,98093.63
2022-12-10T07:55:05.866Z,98102.56
2022-12-10T07:57:32.500Z,98110.91
2022-12-10T07:59:59.560Z,98090.78
2022-12-10T08:02:26.237Z,98094.84
2022-12-10T08:04:52.763Z,98088.75
2022-12-10T08:07:19.344Z,98078.34
2022-12-10T08:09:45.934Z,98088.25
2022-12-10T08:12:12.622Z,98096.53
2022-12-10T08:14:39.204Z,98090.81
2022-12-10T08:17:05.813Z,98092.59
2022-12-10T08:19:32.438Z,98091.94
2022-12-10T08:21:59.119Z,98093.19
2022-12-10T08:24:25.738Z,98081.44
2022-12-10T08:26:52.319Z,98086.41
2022-12-10T08:29:18.919Z,98092.41
2022-12-10T08:31:45.718Z,98093.91
2022-12-10T08:34:14.807Z,98080.97
2022-12-10T08:36:41.794Z,98091.78
2022-12-10T08:39:08.592Z,98095.63
2022-12-10T08:41:35.152Z,98100.00
2022-12-10T08:44:01.744Z,98099.69
2022-12-10T08:46:29.565Z,98109.78
2022-12-10T08:48:56.240Z,98108.41
2022-12-10T08:51:23.074Z,98122.00
2022-12-10T08:53:49.755Z,98113.63
2022-12-10T08:56:16.394Z,98123.84
2022-12-10T08:58:43.295Z,98123.78
2022-12-10T09:01:16.225Z,98134.41
2022-12-10T09:03:43.297Z,98126.94
2022-12-10T09:06:14.485Z,98138.72
2022-12-10T09:08:41.529Z,98135.97
2022-12-10T09:11:12.418Z,98153.19
2022-12-10T09:13:39.041Z,98160.66
2022-12-10T09:16:06.712Z,98156.00
2022-12-10T09:18:33.672Z,98149.47
2022-12-10T09:21:00.203Z,98156.78
2022-12-10T09:23:27.254Z,98150.28
2022-12-10T09:25:54.143Z,98145.91
2022-12-10T09:28:20.845Z,98138.84
2022-12-10T09:30:56.682Z,98138.69
2022-12-10T09:33:23.547Z,98148.00
2022-12-10T09:35:50.153Z,98156.38
2022-12-10T09:38:16.821Z,98165.97
2022-12-10T09:41:03.091Z,98170.78
2022-12-10T09:43:59.018Z,98169.31
2022-12-10T09:46:53.172Z,98175.84
2022-12-10T09:49:34.730Z,98161.72
2022-12-10T09:52:05.219Z,98156.31
2022-12-10T09:54:37.476Z,98152.63
2022-12-10T09:57:07.065Z,98157.31
2022-12-10T09:59:41.475Z,98151.34
2022-12-10T10:02:29.928Z,98166.50
2022-12-10T10:05:27.499Z,98157.09
2022-12-10T10:08:27.319Z,98138.63
2022-12-10T10:10:54.200Z,98140.28
2022-12-10T10:13:42.449Z,98137.66
2022-12-10T10:16:24.424Z,98133.19
2022-12-10T10:19:07.129Z,98129.13
2022-12-10T10:21:37.993Z,98125.28
2022-12-10T10:24:11.618Z,98117.19
2022-12-10T10:26:38.768Z,98108.66
2022-12-10T10:29:12.045Z,98105.41
2022-12-10T10:31:41.942Z,98100.28
2022-12-10T10:34:25.747Z,98089.81
2022-12-10T10:36:58.827Z,98090.84
2022-12-10T10:39:31.548Z,98093.69
2022-12-10T10:42:00.548Z,98071.28
2022-12-10T10:44:34.851Z,98084.03
2022-12-10T10:47:01.582Z,98072.19
2022-12-10T10:49:30.426Z,98072.63
2022-12-10T10:52:05.189Z,98063.00
2022-12-10T10:54:50.440Z,98054.72
2022-12-10T10:57:37.894Z,98048.84
2022-12-10T11:00:18.369Z,98055.81
2022-12-10T11:02:45.426Z,98049.50
2022-12-10T11:05:32.248Z,98048.34
2022-12-10T11:08:05.638Z,98038.75
2022-12-10T11:10:32.690Z,98034.63
2022-12-10T11:13:09.060Z,98018.66
2022-12-10T11:15:43.233Z,98038.66
2022-12-10T11:18:32.254Z,98023.97
2022-12-10T11:20:58.801Z,98027.91
2022-12-10T11:23:33.237Z,98041.28
2022-12-10T11:26:05.552Z,98041.28
2022-12-10T11:28:40.409Z,98033.91
2022-12-10T11:31:27.212Z,98038.75
2022-12-10T11:34:03.866Z,98029.16
2022-12-10T11:36:42.427Z,98020.97
2022-12-10T11:39:24.816Z,98025.28
2022-12-10T11:42:12.932Z,98035.47
2022-12-10T11:45:08.884Z,98026.34
2022-12-10T11:47:45.345Z,98028.44
2022-12-10T11:50:26.532Z,98033.69
2022-12-10T11:53:27.736Z,98023.25
2022-12-10T11:56:04.468Z,98027.06
2022-12-10T11:58:43.087Z,98018.03
2022-12-10T12:01:30.036Z,98024.06
2022-12-10T12:04:21.467Z,98022.47
2022-12-10T12:06:59.354Z,98026.56
2022-12-10T12:10:01.432Z,98029.78
2022-12-10T12:12:55.832Z,98022.91
2022-12-10T12:16:08.476Z,98028.88
2022-12-10T12:18:46.637Z,98021.31
2022-12-10T12:21:16.333Z,98020.59
2022-12-10T12:24:08.269Z,98021.72
2022-12-10T12:26:41.130Z,98039.03
2022-12-10T12:29:18.586Z,98034.19
2022-12-10T12:31:50.335Z,98028.97
2022-12-10T12:34:30.088Z,98018.66
2022-12-10T12:36:56.755Z,98026.84
2022-12-10T12:39:52.343Z,98028.09
2022-12-10T12:42:35.025Z,98024.75
2022-12-10T12:45:14.303Z,98027.41
2022-12-10T12:48:01.904Z,98020.94
2022-12-10T12:50:53.519Z,98027.41
2022-12-10T12:53:23.765Z,98028.09
2022-12-10T12:56:09.263Z,98013.31
2022-12-10T12:58:35.832Z,98027.06
2022-12-10T13:01:19.371Z,98034.66
2022-12-10T13:03:47.156Z,98026.38
2022-12-10T13:06:23.774Z,98029.34
2022-12-10T13:09:24.731Z,98032.78
2022-12-10T13:12:03.514Z,98045.97
2022-12-10T13:14:35.112Z,98047.66
2022-12-10T13:17:29.777Z,98052.22
2022-12-10T13:20:29.339Z,98061.53
2022-12-10T13:23:01.576Z,98054.75
2022-12-10T13:25:56.699Z,98044.66
2022-12-10T13:28:30.829Z,98047.13
2022-12-10T13:31:18.948Z,98048.63
2022-12-10T13:33:48.282Z,98051.78
2022-12-10T13:36:26.295Z,98048.97
2022-12-10T13:39:23.199Z,98048.81
2022-12-10T13:42:28.626Z,98043.97
2022-12-10T13:45:26.489Z,98041.94
2022-12-10T13:47:55.753Z,98047.66
2022-12-10T13:50:31.175Z,98053.31
2022-12-10T13:53:50.254Z,98056.47
2022-12-10T13:56:30.329Z,98065.88
2022-12-10T13:59:15.874Z,98057.84
2022-12-10T14:02:21.396Z,98065.91
2022-12-10T14:05:00.042Z,98064.00
2022-12-10T14:07:28.191Z,98061.63
2022-12-10T14:09:57.982Z,98066.72
2022-12-10T14:12:34.820Z,98069.91
2022-12-10T14:15:05.930Z,98055.69
2022-12-10T14:17:38.165Z,98060.34
2022-12-10T14:20:08.420Z,98058.16
2022-12-10T14:23:23.086Z,98056.63
2022-12-10T14:25:49.734Z,98052.06
2022-12-10T14:28:18.750Z,98058.22
2022-12-10T14:30:48.183Z,98062.19
2022-12-10T14:33:18.532Z,98057.50
2022-12-10T14:35:49.065Z,98055.84
2022-12-10T14:38:28.377Z,98049.41
2022-12-10T14:40:56.043Z,98051.78
2022-12-10T14:43:26.877Z,98051.34
2022-12-10T14:45:57.452Z,98042.56
2022-12-10T14:48:24.969Z,98043.88
2022-12-10T14:50:52.398Z,98051.06
2022-12-10T14:53:29.245Z,98034.97
2022-12-10T14:56:05.864Z,98048.69
2022-12-10T14:58:42.223Z,98033.06
2022-12-10T15:01:20.605Z,98019.34
2022-12-10T15:03:49.297Z,98023.38
2022-12-10T15:06:19.816Z,98025.66
2022-12-10T15:08:48.489Z,98021.53
2022-12-10T15:11:20.048Z,98015.47
2022-12-10T15:13:54.623Z,98011.41
2022-12-10T15:16:30.811Z,98015.06
2022-12-10T15:19:30.355Z,98014.78
2022-12-10T15:22:02.559Z,98012.66
2022-12-10T15:24:37.995Z,98008.22
2022-12-10T15:27:19.904Z,98009.22
2022-12-10T15:29:47.090Z,98010.13
2022-12-10T15:32:18.405Z,98003.25
2022-12-10T15:34:53.497Z,98012.31
2022-12-10T15:37:27.704Z,98011.94
2022-12-10T15:40:03.030Z,98013.19
2022-12-10T15:42:39.822Z,98009.22
2022-12-10T15:45:20.013Z,97999.75
2022-12-10T15:47:46.665Z,98007.09
2022-12-10T15:50:13.728Z,97992.53
2022-12-10T15:52:40.991Z,98007.25
2022-12-10T15:55:08.564Z,97997.66
2022-12-10T15:57:37.403Z,98000.81
2022-12-10T16:00:20.987Z,98001.66
2022-12-10T16:02:58.611Z,97994.31
2022-12-10T16:05:36.106Z,97996.72
2022-12-10T16:08:13.324Z,97992.66
2022-12-10T16:10:40.014Z,97986.41
2022-12-10T16:13:12.224Z,97982.94
2022-12-10T16:15:55.662Z,97987.72
2022-12-10T16:18:22.246Z,97992.13
2022-12-10T16:20:49.106Z,97984.91
2022-12-10T16:23:16.001Z,97999.88
2022-12-10T16:25:45.321Z,97991.16
2022-12-10T16:28:14.287Z,97991.22
2022-12-10T16:30:47.611Z,98000.53
2022-12-10T16:33:14.628Z,97996.59
2022-12-10T16:35:41.416Z,97992.69
2022-12-10T16:38:10.713Z,97990.97
2022-12-10T16:40:39.709Z,97987.09
2022-12-10T16:43:07.187Z,97982.09
2022-12-10T16:45:39.311Z,97991.91
2022-12-10T16:48:06.405Z,97990.97
2022-12-10T16:50:34.356Z,97984.56
2022-12-10T16:53:07.691Z,97984.13
2022-12-10T16:55:34.774Z,97996.13
2022-12-10T16:58:02.028Z,97997.47
2022-12-10T17:00:29.192Z,97989.06
2022-12-10T17:02:55.846Z,97979.56
2022-12-10T17:05:53.275Z,97976.38
2022-12-10T17:08:21.088Z,97984.22
2022-12-10T17:11:07.881Z,97994.16
2022-12-10T17:13:35.557Z,97995.41
2022-12-10T17:16:03.321Z,97992.59
2022-12-10T17:18:34.922Z,97988.50
2022-12-10T17:21:01.614Z,97998.88
2022-12-10T17:23:28.251Z,97983.72
2022-12-10T17:25:55.319Z,97990.09
2022-12-10T17:28:23.337Z,97980.09
2022-12-10T17:30:50.757Z,97988.25
2022-12-10T17:33:20.694Z,98000.84
2022-12-10T17:35:48.974Z,97997.34
2022-12-10T17:38:26.121Z,97998.72
2022-12-10T17:40:53.815Z,97997.03
2022-12-10T17:43:20.476Z,98001.00
2022-12-10T17:45:47.209Z,97994.16
2022-12-10T17:48:15.438Z,97997.84
2022-12-10T17:50:45.027Z,97999.63
2022-12-10T17:53:15.487Z,97981.53
2022-12-10T17:55:48.392Z,97982.69
2022-12-10T17:58:16.085Z,97982.91
2022-12-10T18:00:44.730Z,97982.00
2022-12-10T18:03:11.614Z,97977.50
2022-12-10T18:05:39.077Z,97989.25
2022-12-10T18:08:06.235Z,97982.81
2022-12-10T18:10:34.493Z,97981.34
2022-12-10T18:13:01.819Z,97982.81
2022-12-10T18:15:30.157Z,97987.69
2022-12-10T18:17:57.691Z,97964.25
2022-12-10T18:20:26.134Z,97973.00
2022-12-10T18:22:53.788Z,97974.13
2022-12-10T18:25:22.928Z,97979.78
2022-12-10T18:27:50.976Z,97981.13
2022-12-10T18:30:20.680Z,97978.06
2022-12-10T18:32:47.791Z,97979.91
2022-12-10T18:35:14.768Z,97989.06
2022-12-10T18:37:41.600Z,97984.28
2022-12-10T18:40:14.436Z,97984.88
2022-12-10T18:42:46.741Z,97991.53
2022-12-10T18:45:14.264Z,98000.34
2022-12-10T18:47:40.962Z,97986.78
2022-12-10T18:50:20.536Z,97986.78
2022-12-10T18:52:47.504Z,97981.56
2022-12-10T18:55:14.169Z,97989.03
2022-12-10T18:57:45.570Z,98005.78
2022-12-10T19:00:19.462Z,97999.44
2022-12-10T19:02:46.896Z,98002.38
2022-12-10T19:05:14.366Z,98005.53
2022-12-10T19:07:40.996Z,97987.44
2022-12-10T19:10:14.877Z,97978.28
2022-12-10T19:12:41.495Z,97978.41
2022-12-10T19:15:08.974Z,97970.94
2022-12-10T19:17:37.004Z,97987.22
2022-12-10T19:20:04.742Z,97981.97
2022-12-10T19:22:31.351Z,97973.25
2022-12-10T19:24:57.876Z,97989.22
2022-12-10T19:27:25.113Z,97978.69
2022-12-10T19:29:51.749Z,97984.25
2022-12-10T19:32:18.323Z,97995.34
2022-12-10T19:34:45.069Z,97978.59
2022-12-10T19:37:11.827Z,97986.44
2022-12-10T19:39:38.388Z,97982.03
2022-12-10T19:42:05.049Z,97984.28
2022-12-10T19:44:32.226Z,97988.69
2022-12-10T19:46:59.333Z,98005.09
2022-12-10T19:49:26.023Z,98000.47
2022-12-10T19:51:52.602Z,98009.97
2022-12-10T19:54:19.276Z,98011.00
2022-12-10T19:56:46.074Z,98014.06
2022-12-10T19:59:17.996Z,98016.41
2022-12-10T20:01:45.528Z,98024.13
2022-12-10T20:04:14.649Z,98013.63
2022-12-10T20:06:43.545Z,98032.94
2022-12-10T20:09:24.964Z,98004.00
2022-12-10T20:11:51.680Z,97999.69
2022-12-10T20:14:18.846Z,97997.84
2022-12-10T20:16:46.656Z,98005.91
2022-12-10T20:19:15.839Z,98012.81
2022-12-10T20:21:42.434Z,97998.56
2022-12-10T20:24:09.498Z,97994.81
2022-12-10T20:26:39.052Z,97994.38
2022-12-10T20:29:21.014Z,97988.81
2022-12-10T20:31:49.543Z,97998.78
2022-12-10T20:34:17.030Z,97987.22
2022-12-10T20:36:44.645Z,97989.94
2022-12-10T20:39:23.332Z,97996.28
2022-12-10T20:41:51.410Z,97980.56
2022-12-10T20:44:18.665Z,97999.56
2022-12-10T20:46:46.246Z,97975.13
2022-12-10T20:49:15.181Z,97984.97
2022-12-10T20:51:42.138Z,97998.22
2022-12-10T20:54:10.432Z,98002.41
2022-12-10T20:56:37.377Z,97999.78
2022-12-10T20:59:05.499Z,98002.41
2022-12-10T21:01:32.189Z,97996.97
2022-12-10T21:03:59.659Z,97993.81
2022-12-10T21:06:28.860Z,97989.16
2022-12-10T21:08:56.029Z,97978.78
2022-12-10T21:11:22.715Z,97987.69
2022-12-10T21:13:49.315Z,97986.22
2022-12-10T21:16:19.990Z,97975.81
2022-12-10T21:18:49.091Z,97999.13
2022-12-10T21:21:15.735Z,97985.09
2022-12-10T21:23:43.513Z,97988.84
2022-12-10T21:26:10.979Z,97987.59
2022-12-10T21:28:37.573Z,97960.88
2022-12-10T21:31:04.338Z,97988.84
2022-12-10T21:33:33.426Z,97990.75
2022-12-10T21:36:02.552Z,97975.59
2022-12-10T21:38:29.192Z,97980.34
2022-12-10T21:40:55.812Z,97979.06
2022-12-10T21:43:28.929Z,97995.16
2022-12-10T21:45:56.693Z,97998.53
2022-12-10T21:48:25.907Z,97985.44
2022-12-10T21:51:02.803Z,97997.00
2022-12-10T21:53:29.911Z,97993.03
2022-12-10T21:55:56.534Z,97996.75
2022-12-10T21:58:23.395Z,97997.53
2022-12-10T22:00:57.599Z,97984.31
2022-12-10T22:03:24.436Z,97983.88
2022-12-10T22:05:51.110Z,97997.09
2022-12-10T22:08:17.709Z,97988.72
2022-12-10T22:10:49.946Z,97987.47
2022-12-10T22:13:18.677Z,97980.56
2022-12-10T22:15:47.202Z,97983.28
2022-12-10T22:18:14.921Z,97968.47
2022-12-10T22:20:41.839Z,97962.16
2022-12-10T22:23:12.166Z,97959.88
2022-12-10T22:25:43.538Z,97960.75
2022-12-10T22:28:10.569Z,97962.38
2022-12-10T22:30:40.632Z,97971.75
2022-12-10T22:33:08.368Z,97978.66
2022-12-10T22:35:35.273Z,97976.38
2022-12-10T22:38:01.938Z,97984.88
2022-12-10T22:40:28.514Z,97985.69
2022-12-10T22:43:06.599Z,97975.50
2022-12-10T22:45:43.578Z,97977.97
2022-12-10T22:48:10.704Z,97986.69
2022-12-10T22:50:37.909Z,97950.25
2022-12-10T22:53:05.597Z,97956.13
2022-12-10T22:55:32.227Z,97956.94
2022-12-10T22:57:58.839Z,97942.22
2022-12-10T23:00:25.546Z,97963.72
2022-12-10T23:02:52.169Z,97952.75
2022-12-10T23:05:18.918Z,97945.66
2022-12-10T23:07:45.890Z,97951.84
2022-12-10T23:10:13.067Z,97930.94
2022-12-10T23:12:58.524Z,97931.38
2022-12-10T23:15:25.271Z,97929.16
2022-12-10T23:17:52.475Z,97927.91
2022-12-10T23:20:19.206Z,97933.44
2022-12-10T23:22:45.767Z,97935.72
2022-12-10T23:25:12.632Z,97925.97
2022-12-10T23:27:39.515Z,97942.69
2022-12-10T23:30:08.197Z,97935.34
2022-12-10T23:32:34.878Z,97947.22
2022-12-10T23:35:01.583Z,97931.06
2022-12-10T23:37:31.457Z,97941.13
2022-12-10T23:39:59.696Z,97935.47
2022-12-10T23:42:27.828Z,97922.38
2022-12-10T23:44:54.597Z,97947.91
2022-12-10T23:47:21.182Z,97923.94
2022-12-10T23:49:47.742Z,97926.19
2022-12-10T23:52:14.280Z,97942.47
2022-12-10T23:54:40.928Z,97937.06
2022-12-10T23:57:07.687Z,97933.09
2022-12-10T23:59:34.300Z,97937.06
